Página principal
METAR-TAF:

METAR-TAF

Aeroportos :

Malé, Hulhule Island, Maldivas

Aeroporto Internacional Velana

latitude: 04-12N, longitude: 073-32E, altura: 2 m

Observação actual do tempo

O boletim foi feito há 51 minutos, às 22:00 UTC
Vento 3 kt de norte
Temperatura 28°C
Humidade 84%
Pressão 1008 hPa
Visibilidade 10 km ou mais
Poucas nuvensa uma altura de 1800 ft, Cumulus congestus.
Nuvens fragmentadasa uma altura de 12000 ft

METAR: VRMM 212200Z 01003KT 9999 FEW018TCU BKN120 28/25 Q1008 TEMPO FEW018CB

Hora: 03:51 (22:51 UTC)

Previsão

O boletim foi feito há 5 horas e 51 minutos, às 17:00 UTC
Previsão válida de 21 às 18 UTC a 22 às 24 UTC
Vento 7 kt de nordeste
Visibilidade 10 km ou mais
Poucas nuvensa uma altura de 1800 ft
Temporariamente
de 21 às 20 UTC a 22 às 02 UTC
Visibilidade: 6000 m
Poucas nuvensa uma altura de 1800 ft, Cumulonimbus.
trovoada, chuva fraca

TAF: VRMM 211700Z 2118/2224 05007KT 9999 FEW018 TEMPO 2120/2202 6000 -TSRA FEW018CB

Observações e previsões do tempo de mais de 4000 aeroportos (mensagens METAR e TAF).

As estações disponíveis são os pontos amarelos e vermelhos sobre o mapa.

Mova o rato sobre o mapa para ver o nome da estação.

Depois clique no ponto para visualizar as observações e previsões meteorológicas.

Para alterar o mapa : clique nos botões verdes com uma cruz preta para aumentar o zoom; no botão verde com uma pitada de zoom; ou nas setas verdes para mapas adjacentes.


METAR-TAF: